createdAt,value
2023-05-05T00:00:15.756Z,71.57
2023-05-05T00:02:42.594Z,71.67
2023-05-05T00:05:09.459Z,71.49
2023-05-05T00:07:36.022Z,72.42
2023-05-05T00:10:02.708Z,72.12
2023-05-05T00:12:29.273Z,71.04
2023-05-05T00:14:56.031Z,71.19
2023-05-05T00:17:23.055Z,71.37
2023-05-05T00:19:50.013Z,72.09
2023-05-05T00:22:16.554Z,72.33
2023-05-05T00:24:43.051Z,71.34
2023-05-05T00:27:10.424Z,72.21
2023-05-05T00:29:36.986Z,71.33
2023-05-05T00:32:03.506Z,72.03
2023-05-05T00:34:29.967Z,71.31
2023-05-05T00:36:56.712Z,72.31
2023-05-05T00:39:23.319Z,71.49
2023-05-05T00:41:49.861Z,71.63
2023-05-05T00:44:16.740Z,71.95
2023-05-05T00:46:43.460Z,72.75
2023-05-05T00:49:10.300Z,71.78
2023-05-05T00:51:36.862Z,72.31
2023-05-05T00:54:05.335Z,71.75
2023-05-05T00:56:32.147Z,72.22
2023-05-05T00:58:59.150Z,72.54
2023-05-05T01:01:25.781Z,72.57
2023-05-05T01:03:52.534Z,72.57
2023-05-05T01:06:39.932Z,73.04
2023-05-05T01:09:16.997Z,73.42
2023-05-05T01:11:56.337Z,73.39
2023-05-05T01:14:46.048Z,73.42
2023-05-05T01:17:21.901Z,73.19
2023-05-05T01:20:40.884Z,74.48
2023-05-05T01:23:09.918Z,73.37
2023-05-05T01:26:18.128Z,73.39
2023-05-05T01:29:07.648Z,74.32
2023-05-05T01:31:52.297Z,73.95
2023-05-05T01:34:26.180Z,72.93
2023-05-05T01:37:04.755Z,72.66
2023-05-05T01:39:35.005Z,73.48
2023-05-05T01:42:08.169Z,72.77
2023-05-05T01:44:36.944Z,72.54
2023-05-05T01:47:05.025Z,74.08
2023-05-05T01:49:34.251Z,74.19
2023-05-05T01:52:03.699Z,73.79
2023-05-05T01:54:32.899Z,73.73
2023-05-05T01:56:59.796Z,73.54
2023-05-05T01:59:27.583Z,74.44
2023-05-05T02:01:56.305Z,74.33
2023-05-05T02:04:24.282Z,74.63
2023-05-05T02:06:53.382Z,74.72
2023-05-05T02:09:21.554Z,73.67
2023-05-05T02:11:48.892Z,74.60
2023-05-05T02:14:18.894Z,74.70
2023-05-05T02:16:46.798Z,74.05
2023-05-05T02:19:15.098Z,74.92
2023-05-05T02:21:42.053Z,74.42
2023-05-05T02:24:08.867Z,75.07
2023-05-05T02:26:39.258Z,75.70
2023-05-05T02:29:10.380Z,76.03
2023-05-05T02:31:43.390Z,76.16
2023-05-05T02:34:11.111Z,76.03
2023-05-05T02:36:40.680Z,76.02
2023-05-05T02:39:24.849Z,78.28
2023-05-05T02:41:54.194Z,76.64
2023-05-05T02:44:24.637Z,77.31
2023-05-05T02:46:51.234Z,76.66
2023-05-05T02:49:17.791Z,76.46
2023-05-05T02:51:44.235Z,77.20
2023-05-05T02:54:11.042Z,76.50
2023-05-05T02:56:42.731Z,77.98
2023-05-05T02:59:31.052Z,78.15
2023-05-05T03:02:10.421Z,78.69
2023-05-05T03:04:53.029Z,78.35
2023-05-05T03:07:27.822Z,77.83
2023-05-05T03:10:06.420Z,78.51
2023-05-05T03:12:56.627Z,79.35
2023-05-05T03:15:28.236Z,77.71
2023-05-05T03:17:56.730Z,77.73
2023-05-05T03:20:24.140Z,77.66
2023-05-05T03:22:51.708Z,77.68
2023-05-05T03:25:18.297Z,78.75
2023-05-05T03:27:44.767Z,77.90
2023-05-05T03:30:12.347Z,78.33
2023-05-05T03:32:38.883Z,78.77
2023-05-05T03:35:05.854Z,78.06
2023-05-05T03:37:32.393Z,79.06
2023-05-05T03:39:58.998Z,79.03
2023-05-05T03:42:25.469Z,78.94
2023-05-05T03:44:55.027Z,79.18
2023-05-05T03:47:24.547Z,78.65
2023-05-05T03:49:51.160Z,78.71
2023-05-05T03:52:17.753Z,79.11
2023-05-05T03:54:46.053Z,78.28
2023-05-05T03:57:12.616Z,78.69
2023-05-05T03:59:39.174Z,78.53
2023-05-05T04:02:05.771Z,78.46
2023-05-05T04:04:32.491Z,79.43
2023-05-05T04:06:59.006Z,78.82
2023-05-05T04:09:25.506Z,79.29
2023-05-05T04:11:52.068Z,78.42
2023-05-05T04:14:18.666Z,79.72
2023-05-05T04:16:45.149Z,79.52
2023-05-05T04:19:13.095Z,78.46
2023-05-05T04:21:39.562Z,78.59
2023-05-05T04:24:06.278Z,79.25
2023-05-05T04:26:32.799Z,78.84
2023-05-05T04:28:59.316Z,79.52
2023-05-05T04:31:25.865Z,78.44
2023-05-05T04:33:52.334Z,78.37
2023-05-05T04:36:19.205Z,79.08
2023-05-05T04:38:45.840Z,78.93
2023-05-05T04:41:12.458Z,79.21
2023-05-05T04:43:39.165Z,79.50
2023-05-05T04:46:05.780Z,78.74
2023-05-05T04:48:32.479Z,78.46
2023-05-05T04:51:04.566Z,79.44
2023-05-05T04:53:31.026Z,79.42
2023-05-05T04:55:57.712Z,79.03
2023-05-05T04:58:24.173Z,79.77
2023-05-05T05:00:50.762Z,79.27
2023-05-05T05:03:17.468Z,79.20
2023-05-05T05:05:44.055Z,79.45
2023-05-05T05:08:11.568Z,79.80
2023-05-05T05:10:38.118Z,79.95
2023-05-05T05:13:04.669Z,79.56
2023-05-05T05:15:31.266Z,79.30
2023-05-05T05:17:57.878Z,79.80
2023-05-05T05:20:24.599Z,79.75
2023-05-05T05:22:51.072Z,79.75
2023-05-05T05:25:17.642Z,79.86
2023-05-05T05:27:44.761Z,79.71
2023-05-05T05:30:13.503Z,80.04
2023-05-05T05:32:40.194Z,80.33
2023-05-05T05:35:07.047Z,80.32
2023-05-05T05:37:36.762Z,80.07
2023-05-05T05:40:05.220Z,79.71
2023-05-05T05:42:31.809Z,80.56
2023-05-05T05:45:08.440Z,80.07
2023-05-05T05:47:37.803Z,80.04
2023-05-05T05:50:04.958Z,80.22
2023-05-05T05:52:31.439Z,79.76
2023-05-05T05:54:57.974Z,80.22
2023-05-05T05:57:24.616Z,80.19
2023-05-05T05:59:51.205Z,79.37
2023-05-05T06:02:17.803Z,79.84
2023-05-05T06:04:44.405Z,79.65
2023-05-05T06:07:10.903Z,79.06
2023-05-05T06:09:37.591Z,79.48
2023-05-05T06:12:04.290Z,79.27
2023-05-05T06:14:33.088Z,79.54
2023-05-05T06:16:59.598Z,79.22
2023-05-05T06:19:35.828Z,78.92
2023-05-05T06:22:02.547Z,78.83
2023-05-05T06:24:29.310Z,78.69
2023-05-05T06:26:55.929Z,79.04
2023-05-05T06:29:22.463Z,78.50
2023-05-05T06:32:01.884Z,78.87
2023-05-05T06:34:28.385Z,79.18
2023-05-05T06:37:06.661Z,78.65
2023-05-05T06:39:33.150Z,77.93
2023-05-05T06:41:59.615Z,78.67
2023-05-05T06:44:26.139Z,78.69
2023-05-05T06:46:59.554Z,78.65
2023-05-05T06:49:26.347Z,77.94
2023-05-05T06:51:52.814Z,77.85
2023-05-05T06:54:19.431Z,77.35
2023-05-05T06:56:46.606Z,77.27
2023-05-05T06:59:16.878Z,76.78
2023-05-05T07:01:43.386Z,76.83
2023-05-05T07:04:10.363Z,75.62
2023-05-05T07:06:36.925Z,75.93
2023-05-05T07:09:04.341Z,75.62
2023-05-05T07:11:30.884Z,75.64
2023-05-05T07:13:57.408Z,74.74
2023-05-05T07:16:25.399Z,74.22
2023-05-05T07:18:54.453Z,73.60
2023-05-05T07:21:21.067Z,73.05
2023-05-05T07:23:47.820Z,73.06
2023-05-05T07:26:15.596Z,73.25
2023-05-05T07:28:45.385Z,72.77
2023-05-05T07:31:11.991Z,72.78
2023-05-05T07:33:38.651Z,72.16
2023-05-05T07:36:05.723Z,72.14
2023-05-05T07:38:37.138Z,71.04
2023-05-05T07:41:03.665Z,71.07
2023-05-05T07:43:30.148Z,71.30
2023-05-05T07:45:56.806Z,70.58
2023-05-05T07:48:23.422Z,71.22
2023-05-05T07:50:50.047Z,70.39
2023-05-05T07:53:16.651Z,69.95
2023-05-05T07:55:43.251Z,68.67
2023-05-05T07:58:11.328Z,68.15
2023-05-05T08:00:38.491Z,67.08
2023-05-05T08:03:06.286Z,67.29
2023-05-05T08:05:34.309Z,67.17
2023-05-05T08:08:00.933Z,66.64
2023-05-05T08:10:28.028Z,65.53
2023-05-05T08:12:54.928Z,65.28
2023-05-05T08:15:21.648Z,65.97
2023-05-05T08:17:50.307Z,66.39
2023-05-05T08:20:18.328Z,65.60
2023-05-05T08:22:47.952Z,66.77
2023-05-05T08:25:14.658Z,65.71
2023-05-05T08:27:42.520Z,66.15
2023-05-05T08:30:11.136Z,66.21
2023-05-05T08:32:38.831Z,65.87
2023-05-05T08:35:06.564Z,65.59
2023-05-05T08:37:33.593Z,66.23
2023-05-05T08:40:00.478Z,65.70
2023-05-05T08:42:37.115Z,64.57
2023-05-05T08:45:09.721Z,64.58
2023-05-05T08:47:38.173Z,65.02
2023-05-05T08:50:08.021Z,63.51
2023-05-05T08:55:25.731Z,63.64
2023-05-05T08:57:57.024Z,63.03
2023-05-05T09:00:29.981Z,64.46
2023-05-05T09:02:58.234Z,64.38
2023-05-05T09:05:26.520Z,63.68
2023-05-05T09:07:58.241Z,62.79
2023-05-05T09:10:31.151Z,61.58
2023-05-05T09:12:58.922Z,61.09
2023-05-05T09:15:46.986Z,58.38
2023-05-05T09:18:19.257Z,59.83
2023-05-05T09:20:52.026Z,57.86
2023-05-05T09:23:20.245Z,57.83
2023-05-05T09:26:04.662Z,54.88
2023-05-05T09:28:32.097Z,57.46
2023-05-05T09:31:16.511Z,53.79
2023-05-05T09:33:43.504Z,56.58
2023-05-05T09:36:10.137Z,56.15
2023-05-05T09:38:38.057Z,56.05
2023-05-05T09:41:12.856Z,53.67
2023-05-05T09:43:52.413Z,54.77
2023-05-05T09:46:19.161Z,55.13
2023-05-05T09:48:45.953Z,54.69
2023-05-05T09:51:12.503Z,54.99
2023-05-05T09:53:40.926Z,54.51
2023-05-05T09:56:08.344Z,54.80
2023-05-05T09:58:46.487Z,55.25
2023-05-05T10:01:23.723Z,54.53
2023-05-05T10:04:31.753Z,53.64
2023-05-05T10:06:59.118Z,54.44
2023-05-05T10:09:30.381Z,55.02
2023-05-05T10:12:03.691Z,54.66
2023-05-05T10:14:34.243Z,54.42
2023-05-05T10:17:02.901Z,54.76
2023-05-05T10:19:39.378Z,54.67
2023-05-05T10:22:10.779Z,55.93
2023-05-05T10:24:57.960Z,55.30
2023-05-05T10:27:30.367Z,56.11
2023-05-05T10:30:04.037Z,53.68
2023-05-05T10:33:30.076Z,51.59
2023-05-05T10:36:04.349Z,53.33
2023-05-05T10:38:31.882Z,53.17
2023-05-05T10:41:03.427Z,53.55
2023-05-05T10:43:31.423Z,53.85
2023-05-05T10:46:01.590Z,53.72
2023-05-05T10:48:32.818Z,53.11
2023-05-05T10:51:23.949Z,50.43
2023-05-05T10:54:17.210Z,52.69
2023-05-05T10:56:45.334Z,52.95
2023-05-05T10:59:36.824Z,51.73
2023-05-05T11:02:21.086Z,51.19
2023-05-05T11:05:22.593Z,53.32
2023-05-05T11:07:56.324Z,52.81
2023-05-05T11:10:23.742Z,52.33
2023-05-05T11:13:03.007Z,51.10
2023-05-05T11:15:29.859Z,51.18
2023-05-05T11:18:06.668Z,49.80
2023-05-05T11:20:43.612Z,49.46
2023-05-05T11:23:13.992Z,47.68
2023-05-05T11:25:44.258Z,50.29
2023-05-05T11:28:16.490Z,45.15
2023-05-05T11:30:55.861Z,45.96
2023-05-05T11:33:26.422Z,47.22
2023-05-05T11:36:09.052Z,48.12
2023-05-05T11:38:54.582Z,47.08
2023-05-05T11:41:33.371Z,47.02
2023-05-05T11:44:19.929Z,46.87
2023-05-05T11:46:52.787Z,45.22
2023-05-05T11:49:36.686Z,45.73
2023-05-05T11:52:09.300Z,47.37
2023-05-05T11:54:38.091Z,46.47
2023-05-05T11:57:08.687Z,46.88
2023-05-05T11:59:37.329Z,47.64
2023-05-05T12:02:04.864Z,48.34
2023-05-05T12:04:31.973Z,48.90
2023-05-05T12:06:59.376Z,48.79
2023-05-05T12:09:26.945Z,48.39
2023-05-05T12:11:58.254Z,48.19
2023-05-05T12:14:27.546Z,47.96
2023-05-05T12:16:58.385Z,48.16
2023-05-05T12:19:30.085Z,47.48
2023-05-05T12:21:57.014Z,47.68
2023-05-05T12:24:23.721Z,47.39
2023-05-05T12:26:50.342Z,48.44
2023-05-05T12:29:29.163Z,46.67
2023-05-05T12:31:57.921Z,47.44
2023-05-05T12:34:24.628Z,47.80
2023-05-05T12:36:51.231Z,47.28
2023-05-05T12:39:17.873Z,47.24
2023-05-05T12:41:46.850Z,46.27
2023-05-05T12:44:13.850Z,47.01
2023-05-05T12:46:55.939Z,46.43
2023-05-05T12:49:22.487Z,47.18
2023-05-05T12:51:56.654Z,47.17
2023-05-05T12:54:25.089Z,47.14
2023-05-05T12:56:51.677Z,46.88
2023-05-05T12:59:29.965Z,46.31
2023-05-05T13:02:00.999Z,45.14
2023-05-05T13:04:28.479Z,45.08
2023-05-05T13:07:31.485Z,43.20
2023-05-05T13:10:13.418Z,41.41
2023-05-05T13:12:39.960Z,43.39
2023-05-05T13:15:07.491Z,43.61
2023-05-05T13:17:34.891Z,43.91
2023-05-05T13:20:26.056Z,43.99
2023-05-05T13:22:52.615Z,44.47
2023-05-05T13:25:21.805Z,44.23
2023-05-05T13:27:49.461Z,44.56
2023-05-05T13:30:16.116Z,45.07
2023-05-05T13:32:42.793Z,45.04
2023-05-05T13:35:13.320Z,44.57
2023-05-05T13:37:46.066Z,44.56
2023-05-05T13:40:17.852Z,44.94
2023-05-05T13:42:44.437Z,44.54
2023-05-05T13:45:12.189Z,44.63
2023-05-05T13:47:38.821Z,45.75
2023-05-05T13:50:06.240Z,44.89
2023-05-05T13:52:33.018Z,45.20
2023-05-05T13:55:00.844Z,46.09
2023-05-05T13:57:27.604Z,46.69
2023-05-05T13:59:54.178Z,45.93
2023-05-05T14:02:20.792Z,45.33
2023-05-05T14:04:47.308Z,45.23
2023-05-05T14:07:13.791Z,45.43
2023-05-05T14:09:42.660Z,44.70
2023-05-05T14:12:11.258Z,45.85
2023-05-05T14:14:37.826Z,45.36
2023-05-05T14:17:06.765Z,45.61
2023-05-05T14:19:43.047Z,45.85
2023-05-05T14:22:09.659Z,45.75
2023-05-05T14:24:36.289Z,45.29
2023-05-05T14:27:05.416Z,45.63
2023-05-05T14:29:31.877Z,44.87
2023-05-05T14:31:58.648Z,44.38
2023-05-05T14:34:25.446Z,44.38
2023-05-05T14:36:51.923Z,44.47
2023-05-05T14:39:18.479Z,44.50
2023-05-05T14:41:44.938Z,43.94
2023-05-05T14:44:11.394Z,41.81
2023-05-05T14:46:38.006Z,41.01
2023-05-05T14:49:04.538Z,40.55
2023-05-05T14:51:32.035Z,40.66
2023-05-05T14:53:58.754Z,40.91
2023-05-05T14:56:26.514Z,41.36
2023-05-05T14:58:53.170Z,41.42
2023-05-05T15:01:27.120Z,41.62
2023-05-05T15:03:54.013Z,41.83
2023-05-05T15:06:20.785Z,41.93
2023-05-05T15:08:49.640Z,41.62
2023-05-05T15:11:16.159Z,41.62
2023-05-05T15:13:42.664Z,42.67
2023-05-05T15:16:09.226Z,42.56
2023-05-05T15:18:36.447Z,42.38
2023-05-05T15:21:03.550Z,41.93
2023-05-05T15:23:30.140Z,41.99
2023-05-05T15:25:59.573Z,42.79
2023-05-05T15:28:26.080Z,42.47
2023-05-05T15:30:52.923Z,42.75
2023-05-05T15:33:19.531Z,42.52
2023-05-05T15:35:46.166Z,42.37
2023-05-05T15:38:12.776Z,42.90
2023-05-05T15:40:39.281Z,43.29
2023-05-05T15:43:06.814Z,43.18
2023-05-05T15:45:33.503Z,44.04
2023-05-05T15:48:01.228Z,43.62
2023-05-05T15:50:30.066Z,44.21
2023-05-05T15:52:57.297Z,44.01
2023-05-05T15:55:26.839Z,44.15
2023-05-05T15:57:54.027Z,44.46
2023-05-05T16:00:20.945Z,45.23
2023-05-05T16:02:47.551Z,44.84
2023-05-05T16:05:16.595Z,45.40
2023-05-05T16:07:43.081Z,44.98
2023-05-05T16:10:10.173Z,45.15
2023-05-05T16:12:36.776Z,44.66
2023-05-05T16:15:03.473Z,43.97
2023-05-05T16:17:29.993Z,44.21
2023-05-05T16:19:56.578Z,44.17
2023-05-05T16:22:23.140Z,43.88
2023-05-05T16:24:49.631Z,43.76
2023-05-05T16:27:16.458Z,43.54
2023-05-05T16:29:43.012Z,44.10
2023-05-05T16:32:11.966Z,43.20
2023-05-05T16:34:38.475Z,43.24
2023-05-05T16:37:05.028Z,43.29
2023-05-05T16:39:33.032Z,42.35
2023-05-05T16:41:59.682Z,42.81
2023-05-05T16:44:26.288Z,42.33
2023-05-05T16:46:52.861Z,42.06
2023-05-05T16:49:19.417Z,40.95
2023-05-05T16:51:46.021Z,42.39
2023-05-05T16:54:12.568Z,42.24
2023-05-05T16:56:39.058Z,42.58
2023-05-05T16:59:05.735Z,42.37
2023-05-05T17:01:32.393Z,43.02
2023-05-05T17:04:02.245Z,42.84
2023-05-05T17:06:32.940Z,42.63
2023-05-05T17:08:59.784Z,42.81
2023-05-05T17:11:26.765Z,41.87
2023-05-05T17:13:53.329Z,42.82
2023-05-05T17:16:19.884Z,42.83
2023-05-05T17:18:46.364Z,42.55
2023-05-05T17:21:12.851Z,42.03
2023-05-05T17:23:39.356Z,41.68
2023-05-05T17:26:05.873Z,42.18
2023-05-05T17:28:32.710Z,42.63
2023-05-05T17:31:00.031Z,43.19
2023-05-05T17:33:26.564Z,43.14
2023-05-05T17:35:54.326Z,43.27
2023-05-05T17:38:20.945Z,43.64
2023-05-05T17:40:47.545Z,43.79
2023-05-05T17:43:14.160Z,43.50
2023-05-05T17:45:43.129Z,43.83
2023-05-05T17:48:09.652Z,44.39
2023-05-05T17:50:36.388Z,44.53
2023-05-05T17:53:03.519Z,44.42
2023-05-05T17:55:30.210Z,44.91
2023-05-05T17:57:57.375Z,45.23
2023-05-05T18:00:23.942Z,45.21
2023-05-05T18:02:50.565Z,45.79
2023-05-05T18:05:17.327Z,46.06
2023-05-05T18:07:43.799Z,46.58
2023-05-05T18:10:13.100Z,46.57
2023-05-05T18:12:39.766Z,46.72
2023-05-05T18:15:07.086Z,46.66
2023-05-05T18:17:33.821Z,47.06
2023-05-05T18:20:00.350Z,47.06
2023-05-05T18:22:26.915Z,47.56
2023-05-05T18:24:58.947Z,47.61
2023-05-05T18:27:26.956Z,47.51
2023-05-05T18:29:53.761Z,47.66
2023-05-05T18:32:20.437Z,46.91
2023-05-05T18:34:47.082Z,46.48
2023-05-05T18:37:13.589Z,46.49
2023-05-05T18:39:43.284Z,47.16
2023-05-05T18:42:12.763Z,47.31
2023-05-05T18:44:39.835Z,47.42
2023-05-05T18:47:06.825Z,47.89
2023-05-05T18:49:33.880Z,47.76
2023-05-05T18:52:00.535Z,47.44
2023-05-05T18:54:36.272Z,48.13
2023-05-05T18:57:04.055Z,48.32
2023-05-05T18:59:30.716Z,47.81
2023-05-05T19:01:59.564Z,48.20
2023-05-05T19:04:31.202Z,48.04
2023-05-05T19:06:59.082Z,48.08
2023-05-05T19:09:25.924Z,48.97
2023-05-05T19:11:52.545Z,48.73
2023-05-05T19:14:19.306Z,48.82
2023-05-05T19:16:54.267Z,49.47
2023-05-05T19:19:48.486Z,50.43
2023-05-05T19:22:17.587Z,49.68
2023-05-05T19:24:46.927Z,51.63
2023-05-05T19:27:16.428Z,51.63
2023-05-05T19:29:53.175Z,52.33
2023-05-05T19:32:20.891Z,52.91
2023-05-05T19:34:49.392Z,53.73
2023-05-05T19:37:18.596Z,54.16
2023-05-05T19:39:45.747Z,53.80
2023-05-05T19:42:12.581Z,54.63
2023-05-05T19:44:39.030Z,54.45
2023-05-05T19:47:05.608Z,54.44
2023-05-05T19:49:32.136Z,55.25
2023-05-05T19:51:58.981Z,55.79
2023-05-05T19:54:26.029Z,56.67
2023-05-05T19:56:54.552Z,56.61
2023-05-05T19:59:21.948Z,57.04
2023-05-05T20:01:48.432Z,57.73
2023-05-05T20:04:15.311Z,57.83
2023-05-05T20:06:41.790Z,58.02
2023-05-05T20:09:09.962Z,58.83
2023-05-05T20:11:36.879Z,59.02
2023-05-05T20:14:03.555Z,59.31
2023-05-05T20:16:30.194Z,60.12
2023-05-05T20:18:56.837Z,60.81
2023-05-05T20:21:23.379Z,60.51
2023-05-05T20:23:49.984Z,61.15
2023-05-05T20:26:16.984Z,61.24
2023-05-05T20:28:45.380Z,61.16
2023-05-05T20:31:14.172Z,62.05
2023-05-05T20:33:40.850Z,63.12
2023-05-05T20:36:07.598Z,62.93
2023-05-05T20:38:34.230Z,62.82
2023-05-05T20:41:00.774Z,62.92
2023-05-05T20:43:27.505Z,62.85
2023-05-05T20:45:53.965Z,63.37
2023-05-05T20:48:22.141Z,63.74
2023-05-05T20:50:48.874Z,63.64
2023-05-05T20:53:18.803Z,64.74
2023-05-05T20:55:45.295Z,64.11
2023-05-05T20:58:11.787Z,64.67
2023-05-05T21:00:38.388Z,64.64
2023-05-05T21:03:05.128Z,64.47
2023-05-05T21:05:35.503Z,65.15
2023-05-05T21:08:02.015Z,65.03
2023-05-05T21:10:29.082Z,65.71
2023-05-05T21:12:55.763Z,65.63
2023-05-05T21:15:22.459Z,65.40
2023-05-05T21:17:49.070Z,65.74
2023-05-05T21:20:16.389Z,66.04
2023-05-05T21:22:43.095Z,66.49
2023-05-05T21:25:17.042Z,67.93
2023-05-05T21:27:44.084Z,67.23
2023-05-05T21:30:11.923Z,66.82
2023-05-05T21:32:40.043Z,67.52
2023-05-05T21:35:08.019Z,67.01
2023-05-05T21:37:36.472Z,67.34
2023-05-05T21:40:09.404Z,67.82
2023-05-05T21:42:36.354Z,67.50
2023-05-05T21:45:03.102Z,67.83
2023-05-05T21:47:29.622Z,67.83
2023-05-05T21:49:57.401Z,67.96
2023-05-05T21:52:23.870Z,68.06
2023-05-05T21:54:50.511Z,68.55
2023-05-05T21:57:16.944Z,68.04
2023-05-05T21:59:46.567Z,68.82
2023-05-05T22:02:13.066Z,69.07
2023-05-05T22:04:39.552Z,69.56
2023-05-05T22:07:06.257Z,68.38
2023-05-05T22:09:32.926Z,68.99
2023-05-05T22:11:59.376Z,69.28
2023-05-05T22:14:25.960Z,69.03
2023-05-05T22:16:52.435Z,70.09
2023-05-05T22:19:18.879Z,69.41
2023-05-05T22:21:45.484Z,69.19
2023-05-05T22:24:12.057Z,69.31
2023-05-05T22:26:42.943Z,69.01
2023-05-05T22:29:10.240Z,69.39
2023-05-05T22:31:37.236Z,69.14
2023-05-05T22:34:03.946Z,69.07
2023-05-05T22:36:31.428Z,69.81
2023-05-05T22:38:57.912Z,69.60
2023-05-05T22:41:24.769Z,69.85
2023-05-05T22:43:51.329Z,69.88
2023-05-05T22:46:17.844Z,69.40
2023-05-05T22:48:44.379Z,69.81
2023-05-05T22:51:11.281Z,69.43
2023-05-05T22:53:38.745Z,69.25
2023-05-05T22:56:06.272Z,69.66
2023-05-05T22:58:32.762Z,70.51
2023-05-05T23:00:59.441Z,70.65
2023-05-05T23:03:26.023Z,70.19
2023-05-05T23:05:52.651Z,70.91
2023-05-05T23:08:20.293Z,70.61
2023-05-05T23:10:46.770Z,71.56
2023-05-05T23:13:13.449Z,71.06
2023-05-05T23:15:40.934Z,70.95
2023-05-05T23:18:07.494Z,70.85
2023-05-05T23:20:34.030Z,70.93
2023-05-05T23:23:00.809Z,71.04
2023-05-05T23:25:27.258Z,71.54
2023-05-05T23:27:53.788Z,71.05
2023-05-05T23:30:20.654Z,71.94
2023-05-05T23:32:47.167Z,71.27
2023-05-05T23:35:13.787Z,71.10
2023-05-05T23:37:40.320Z,72.25
2023-05-05T23:40:07.422Z,72.00
2023-05-05T23:42:33.889Z,72.57
2023-05-05T23:45:00.989Z,71.88
2023-05-05T23:47:27.571Z,72.76
2023-05-05T23:49:54.113Z,73.06
2023-05-05T23:52:20.910Z,72.74
2023-05-05T23:54:47.559Z,72.96
2023-05-05T23:57:14.077Z,73.50
2023-05-05T23:59:40.772Z,73.15
